Time;durP1;ratioP1;P1;durP2;ratioP2;P2;SDS_P1;SDS_P2;PMS_P1;PMS_P2;Temp;Humidity;BMP_temperature;BMP_pressure;BME280_temperature;BME280_humidity;BME280_pressure;Samples;Min_cycle;Max_cycle;Signal;HPM_P1;HPM_P2
2022/03/13 00:00:48;;;;;;;45.65;15.65;;;;;;;-4.91;50.98;94890.47;5043498;28;20328;-91
2022/03/13 00:03:15;;;;;;;51.45;14.82;;;;;;;-4.93;50.84;94891.66;5043338;28;20044;-93
2022/03/13 00:05:43;;;;;;;39.65;13.55;;;;;;;-4.97;50.74;94890.44;5044398;28;20033;-94
2022/03/13 00:08:26;;;;;;;27.58;10.45;;;;;;;-4.98;50.00;94900.03;5043722;28;20104;-93
2022/03/13 00:10:58;;;;;;;26.20;10.70;;;;;;;-5.02;50.00;94883.22;5044335;28;20025;-93
2022/03/13 00:13:32;;;;;;;27.97;9.10;;;;;;;-5.00;49.00;94885.63;5044142;28;20192;-93
2022/03/13 00:16:05;;;;;;;19.45;7.30;;;;;;;-5.03;48.96;94892.00;5044208;28;20094;-93
2022/03/13 00:18:32;;;;;;;20.35;7.82;;;;;;;-5.02;48.88;94893.63;5044279;28;20067;-93
2022/03/13 00:21:02;;;;;;;20.23;7.45;;;;;;;-5.00;49.02;94890.84;5026699;28;20056;-91
2022/03/13 00:23:30;;;;;;;19.48;7.72;;;;;;;-5.04;49.64;94882.59;5027271;28;20029;-92
2022/03/13 00:25:57;;;;;;;25.10;9.38;;;;;;;-5.02;49.78;94887.63;5044691;28;20029;-93
2022/03/13 00:28:26;;;;;;;27.45;10.07;;;;;;;-5.01;50.17;94886.59;5044360;28;20025;-91
2022/03/13 00:30:55;;;;;;;30.00;10.25;;;;;;;-5.00;49.59;94880.44;5044583;28;20059;-92
2022/03/13 00:33:24;;;;;;;40.90;12.25;;;;;;;-5.00;50.05;94890.84;5044374;28;20359;-92
2022/03/13 00:35:51;;;;;;;27.15;10.65;;;;;;;-5.04;50.35;94886.00;5044114;28;20044;-93
2022/03/13 00:38:25;;;;;;;30.05;10.77;;;;;;;-5.05;50.76;94874.00;5044351;28;20032;-93
2022/03/13 00:40:53;;;;;;;28.88;10.68;;;;;;;-5.14;50.70;94880.34;5044217;28;20022;-92
2022/03/13 00:43:21;;;;;;;26.58;9.85;;;;;;;-5.15;50.91;94875.31;5027262;28;20028;-93
2022/03/13 00:45:48;;;;;;;32.45;10.90;;;;;;;-5.20;50.88;94886.28;5026236;28;20066;-93
2022/03/13 00:48:15;;;;;;;28.23;9.43;;;;;;;-5.22;51.12;94880.47;5046248;28;20044;-93
2022/03/13 00:50:41;;;;;;;22.52;8.90;;;;;;;-5.18;50.83;94884.31;5046951;28;20025;-92
2022/03/13 00:53:06;;;;;;;24.75;9.07;;;;;;;-5.21;51.03;94865.69;5047050;28;20027;-93
2022/03/13 00:55:33;;;;;;;26.95;9.07;;;;;;;-5.18;51.14;94867.91;5046668;28;20022;-91
2022/03/13 00:57:58;;;;;;;29.17;9.80;;;;;;;-5.22;51.18;94864.88;5046547;28;20021;-91
2022/03/13 01:00:24;;;;;;;22.17;8.90;;;;;;;-5.28;51.14;94860.44;5046385;28;20025;-91
2022/03/13 01:02:50;;;;;;;27.40;9.77;;;;;;;-5.25;50.83;94854.88;5046681;28;20028;-91
2022/03/13 01:05:21;;;;;;;24.88;8.45;;;;;;;-5.23;50.77;94852.91;5046571;28;20025;-90
2022/03/13 01:07:47;;;;;;;17.33;7.68;;;;;;;-5.25;49.88;94862.69;5046702;28;20021;-92
2022/03/13 01:10:13;;;;;;;18.73;9.02;;;;;;;-5.27;49.88;94844.69;5046642;28;20022;-92
2022/03/13 01:12:39;;;;;;;25.95;9.77;;;;;;;-5.29;50.31;94854.47;5046450;28;20036;-92
2022/03/13 01:15:05;;;;;;;25.88;9.93;;;;;;;-5.31;50.65;94846.06;5046122;28;20068;-90
2022/03/13 01:17:31;;;;;;;25.20;9.63;;;;;;;-5.33;50.63;94844.59;5046328;28;20024;-90
2022/03/13 01:19:56;;;;;;;21.35;8.23;;;;;;;-5.35;50.77;94838.81;5046192;28;20022;-90
2022/03/13 01:22:22;;;;;;;26.42;8.73;;;;;;;-5.32;50.57;94834.03;5028772;28;20377;-90
2022/03/13 01:24:51;;;;;;;29.10;9.48;;;;;;;-5.31;50.68;94833.06;5046043;28;20032;-92
2022/03/13 01:27:17;;;;;;;26.10;10.57;;;;;;;-5.33;50.78;94832.44;5046501;28;20140;-91
2022/03/13 01:29:44;;;;;;;23.92;9.55;;;;;;;-5.29;50.45;94836.25;5045768;28;20021;-90
2022/03/13 01:32:12;;;;;;;42.10;11.48;;;;;;;-5.26;49.92;94835.06;5045676;28;20141;-90
2022/03/13 01:34:45;;;;;;;56.05;13.43;;;;;;;-5.32;50.14;94820.25;5010476;28;20125;-92
2022/03/13 01:37:18;;;;;;;50.78;12.65;;;;;;;-5.34;50.25;94824.84;5009039;28;20045;-92
2022/03/13 01:39:43;;;;;;;37.00;10.70;;;;;;;-5.34;50.38;94820.44;5026121;28;20321;-93
2022/03/13 01:42:10;;;;;;;40.95;10.95;;;;;;;-5.43;50.48;94813.78;5025985;28;20042;-92
2022/03/13 01:44:35;;;;;;;41.25;12.23;;;;;;;-5.47;50.75;94815.16;5026191;28;20029;-93
2022/03/13 01:47:01;;;;;;;41.78;11.15;;;;;;;-5.49;50.83;94814.56;5026279;28;20071;-92
2022/03/13 01:49:27;;;;;;;50.22;13.80;;;;;;;-5.45;50.99;94816.56;5008846;28;20097;-93
2022/03/13 01:51:53;;;;;;;40.83;12.00;;;;;;;-5.47;50.29;94815.97;5026035;28;20339;-93
2022/03/13 01:54:19;;;;;;;35.28;9.95;;;;;;;-5.49;49.99;94825.75;5026311;28;20017;-92
2022/03/13 01:56:48;;;;;;;28.98;9.00;;;;;;;-5.51;49.72;94832.13;5025983;28;20217;-92
2022/03/13 01:59:14;;;;;;;26.88;8.10;;;;;;;-5.52;49.34;94820.91;5025285;28;20057;-92
2022/03/13 02:01:41;;;;;;;25.35;8.73;;;;;;;-5.55;49.59;94823.91;5007979;28;20051;-90
2022/03/13 02:04:07;;;;;;;26.13;8.80;;;;;;;-5.52;50.53;94839.09;5025498;28;20375;-90
2022/03/13 02:06:33;;;;;;;36.38;9.77;;;;;;;-5.54;50.23;94828.09;5025170;28;20028;-91
2022/03/13 02:08:58;;;;;;;24.30;8.70;;;;;;;-5.57;50.36;94841.47;5025465;28;20030;-91
2022/03/13 02:11:40;;;;;;;23.77;9.18;;;;;;;-5.60;50.85;94828.84;5026135;28;20018;-91
2022/03/13 02:14:08;;;;;;;22.35;7.97;;;;;;;-5.68;51.68;94837.59;5025796;28;20048;-91
2022/03/13 02:16:35;;;;;;;19.15;8.00;;;;;;;-5.69;51.41;94837.78;5025602;28;20252;-91
2022/03/13 02:19:01;;;;;;;28.63;9.77;;;;;;;-5.67;51.68;94835.81;5025126;28;20024;-89
2022/03/13 02:21:30;;;;;;;33.83;10.15;;;;;;;-5.68;51.86;94821.19;5024928;28;20029;-88
2022/03/13 02:23:59;;;;;;;35.03;10.15;;;;;;;-5.70;51.93;94824.00;5024432;28;20018;-89
2022/03/13 02:26:24;;;;;;;37.53;12.43;;;;;;;-5.73;51.90;94834.75;5024272;28;20021;-87
2022/03/13 02:28:52;;;;;;;46.72;14.32;;;;;;;-5.69;52.12;94830.00;5023939;28;20024;-86
2022/03/13 02:31:38;;;;;;;39.42;11.82;;;;;;;-5.68;52.25;94827.22;5006224;28;20113;-86
2022/03/13 02:34:08;;;;;;;50.90;13.77;;;;;;;-5.71;52.44;94837.97;5037476;28;20056;-89
2022/03/13 02:36:36;;;;;;;62.50;17.35;;;;;;;-5.73;51.86;94834.75;5044199;28;20036;-89
2022/03/13 02:39:04;;;;;;;51.40;16.02;;;;;;;-5.80;51.90;94833.91;5026666;28;20037;-86
2022/03/13 02:41:30;;;;;;;39.33;14.27;;;;;;;-5.86;52.03;94840.66;5043808;28;20020;-87
2022/03/13 02:43:56;;;;;;;23.70;9.23;;;;;;;-5.88;52.01;94839.22;5043786;28;20013;-89
2022/03/13 02:46:24;;;;;;;32.92;10.65;;;;;;;-5.92;51.95;94841.41;5026768;28;20021;-92
2022/03/13 02:48:51;;;;;;;36.03;11.40;;;;;;;-5.94;52.61;94833.00;5045464;28;20068;-92
2022/03/13 02:51:17;;;;;;;43.28;11.90;;;;;;;-5.92;52.91;94832.78;5045341;28;20017;-91
2022/03/13 02:53:44;;;;;;;37.97;11.85;;;;;;;-5.92;52.53;94837.97;5045578;28;20028;-92
2022/03/13 02:56:09;;;;;;;50.88;12.93;;;;;;;-5.89;52.57;94845.41;5045726;28;20347;-92
2022/03/13 02:58:35;;;;;;;70.20;18.02;;;;;;;-5.88;52.95;94841.84;5046628;28;20026;-92
2022/03/13 03:01:01;;;;;;;54.70;16.80;;;;;;;-5.87;52.67;94841.63;5045946;28;20021;-92
2022/03/13 03:03:27;;;;;;;67.10;20.67;;;;;;;-5.86;52.83;94845.84;5044568;28;20032;-92
2022/03/13 03:05:53;;;;;;;56.67;15.75;;;;;;;-5.84;52.73;94832.69;5027034;28;20021;-90
2022/03/13 03:08:19;;;;;;;54.72;14.48;;;;;;;-5.89;52.82;94830.63;5045326;28;20328;-92
2022/03/13 03:10:45;;;;;;;38.83;12.93;;;;;;;-5.86;52.23;94825.06;5050021;28;20022;-92
2022/03/13 03:13:13;;;;;;;45.83;12.93;;;;;;;-5.86;52.22;94830.25;5046679;28;20047;-92
2022/03/13 03:15:39;;;;;;;32.83;10.80;;;;;;;-5.87;52.09;94828.63;5045371;28;20017;-92
2022/03/13 03:19:01;;;;;;;28.75;10.80;;;;;;;-5.85;52.60;94831.06;5045224;28;20018;-91
2022/03/13 03:21:27;;;;;;;29.33;9.87;;;;;;;-5.90;52.32;94821.25;5044132;28;20040;-90
2022/03/13 03:23:52;;;;;;;28.42;10.75;;;;;;;-5.90;52.67;94818.66;5043211;28;20267;-92
2022/03/13 03:26:18;;;;;;;22.88;9.73;;;;;;;-5.89;52.76;94820.22;5044026;28;20132;-92
2022/03/13 03:28:47;;;;;;;20.50;6.88;;;;;;;-5.87;52.41;94823.44;5044063;28;20049;-93
2022/03/13 03:31:12;;;;;;;25.08;8.80;;;;;;;-5.90;52.72;94818.66;5044074;28;20041;-92
2022/03/13 03:33:38;;;;;;;25.02;8.07;;;;;;;-5.91;52.70;94816.22;5043600;28;20324;-91
2022/03/13 03:36:04;;;;;;;18.90;7.78;;;;;;;-5.95;53.06;94815.03;5043752;28;20090;-91
2022/03/13 03:38:29;;;;;;;22.40;8.77;;;;;;;-5.95;53.21;94810.63;5043629;28;20017;-91
2022/03/13 03:40:55;;;;;;;16.02;6.93;;;;;;;-5.94;53.50;94811.41;5043393;28;20013;-89
2022/03/13 03:43:20;;;;;;;24.95;8.50;;;;;;;-5.96;52.93;94814.22;5043269;28;20017;-91
2022/03/13 03:45:46;;;;;;;21.08;8.07;;;;;;;-5.90;52.69;94817.84;5043124;28;20017;-89
2022/03/13 03:48:11;;;;;;;20.35;8.38;;;;;;;-5.89;53.01;94802.06;5042743;28;20021;-88
2022/03/13 03:50:37;;;;;;;29.65;8.32;;;;;;;-5.89;53.30;94809.84;5042647;28;20028;-88
2022/03/13 03:53:03;;;;;;;19.52;7.90;;;;;;;-5.89;53.59;94814.25;5042649;28;20021;-89
2022/03/13 03:55:29;;;;;;;29.55;9.02;;;;;;;-5.86;54.22;94801.69;5042766;28;20031;-89
2022/03/13 03:57:56;;;;;;;29.35;9.15;;;;;;;-5.80;54.32;94814.91;5042665;28;20028;-88
2022/03/13 04:00:24;;;;;;;19.80;8.27;;;;;;;-5.86;54.03;94811.28;5042718;28;20023;-88
2022/03/13 04:02:50;;;;;;;31.00;9.45;;;;;;;-5.76;54.80;94808.34;5025000;28;20028;-88
2022/03/13 04:05:15;;;;;;;23.83;9.27;;;;;;;-5.74;53.75;94801.16;5042480;28;20017;-88
2022/03/13 04:07:41;;;;;;;19.92;7.32;;;;;;;-5.73;53.98;94806.19;5042803;28;20017;-88
2022/03/13 04:10:08;;;;;;;18.90;8.60;;;;;;;-5.68;53.61;94803.00;5042375;28;20411;-87
2022/03/13 04:12:34;;;;;;;19.33;7.10;;;;;;;-5.58;53.27;94808.69;5043828;28;20022;-94
2022/03/13 04:15:04;;;;;;;15.63;6.57;;;;;;;-5.56;51.90;94811.88;5044371;28;20027;-92
2022/03/13 04:17:30;;;;;;;17.92;6.65;;;;;;;-5.58;51.63;94806.06;5043631;28;20032;-93
2022/03/13 04:19:55;;;;;;;17.63;7.13;;;;;;;-5.53;51.56;94808.94;5025886;28;20017;-92
2022/03/13 04:22:21;;;;;;;22.40;10.25;;;;;;;-5.55;52.19;94804.91;5044613;28;20334;-92
2022/03/13 04:24:47;;;;;;;21.25;8.98;;;;;;;-5.66;52.85;94795.84;5029612;28;20033;-92
2022/03/13 04:27:13;;;;;;;23.05;9.00;;;;;;;-5.66;53.08;94801.03;5047420;28;20155;-92
2022/03/13 04:29:40;;;;;;;24.55;9.73;;;;;;;-5.68;53.08;94790.84;5047050;28;20197;-91
2022/03/13 04:32:06;;;;;;;25.55;9.43;;;;;;;-5.64;53.01;94788.66;5047307;28;20085;-92
2022/03/13 04:34:32;;;;;;;24.45;9.50;;;;;;;-5.55;53.86;94794.53;5029536;28;20049;-92
2022/03/13 04:36:59;;;;;;;22.75;9.25;;;;;;;-5.47;53.93;94789.97;5029644;28;20035;-92
2022/03/13 04:39:25;;;;;;;30.33;9.75;;;;;;;-5.34;54.37;94789.25;5047027;28;20025;-92
2022/03/13 04:41:51;;;;;;;18.50;8.32;;;;;;;-5.24;55.23;94794.09;5046740;28;20048;-93
2022/03/13 04:44:18;;;;;;;23.33;8.95;;;;;;;-5.16;56.00;94793.16;5046738;28;20128;-92
2022/03/13 04:46:43;;;;;;;23.55;8.98;;;;;;;-5.08;55.02;94793.78;5046854;28;20318;-90
2022/03/13 04:49:09;;;;;;;26.83;10.90;;;;;;;-5.00;54.39;94802.44;5046564;28;20029;-91
2022/03/13 04:51:35;;;;;;;29.10;10.05;;;;;;;-4.94;54.57;94796.47;5029081;28;20040;-91
2022/03/13 04:54:00;;;;;;;28.63;11.85;;;;;;;-4.89;54.26;94804.47;5046653;28;20025;-91
2022/03/13 04:56:26;;;;;;;30.17;11.35;;;;;;;-4.82;54.10;94796.69;5046460;28;20049;-92
2022/03/13 04:58:51;;;;;;;27.60;11.63;;;;;;;-4.82;54.36;94794.91;5046537;28;20312;-86
2022/03/13 05:01:19;;;;;;;30.92;13.35;;;;;;;-4.77;54.37;94783.91;5045502;28;20017;-84
2022/03/13 05:03:45;;;;;;;31.20;13.30;;;;;;;-4.72;54.22;94792.75;5045337;28;20219;-84
2022/03/13 05:06:10;;;;;;;35.78;13.90;;;;;;;-4.71;53.53;94796.94;5045161;28;20049;-84
2022/03/13 05:08:36;;;;;;;31.95;13.68;;;;;;;-4.75;53.24;94793.13;5045301;28;20086;-84
2022/03/13 05:11:05;;;;;;;32.67;13.88;;;;;;;-4.76;53.26;94799.31;5045023;28;20037;-88
2022/03/13 05:13:30;;;;;;;30.00;11.60;;;;;;;-4.70;52.97;94808.94;5046652;28;20224;-90
2022/03/13 05:15:57;;;;;;;31.92;12.35;;;;;;;-4.67;52.94;94803.34;5047415;28;20067;-90
2022/03/13 05:18:22;;;;;;;29.65;12.07;;;;;;;-4.68;53.04;94809.56;5046801;28;20347;-91
2022/03/13 05:20:48;;;;;;;31.10;11.50;;;;;;;-4.68;53.23;94812.16;5046322;28;20017;-90
2022/03/13 05:23:14;;;;;;;27.20;11.07;;;;;;;-4.71;52.89;94817.75;5046166;28;20108;-89
2022/03/13 05:25:40;;;;;;;29.33;11.98;;;;;;;-4.73;52.84;94809.31;5028025;28;20025;-89
2022/03/13 05:28:08;;;;;;;42.80;15.80;;;;;;;-4.71;52.67;94812.53;5045705;28;20025;-90
2022/03/13 05:30:34;;;;;;;43.08;17.83;;;;;;;-4.72;53.02;94810.13;5046509;28;20021;-91
2022/03/13 05:33:00;;;;;;;43.58;17.23;;;;;;;-4.66;53.26;94794.56;5046144;28;20053;-90
2022/03/13 05:35:26;;;;;;;39.72;16.88;;;;;;;-4.62;53.07;94815.75;5045791;28;20060;-88
2022/03/13 05:37:52;;;;;;;31.70;15.43;;;;;;;-4.59;52.86;94817.19;5045626;28;20025;-88
2022/03/13 05:40:19;;;;;;;28.85;13.73;;;;;;;-4.64;53.13;94812.56;5044978;28;20040;-88
2022/03/13 05:42:50;;;;;;;30.65;13.05;;;;;;;-4.59;53.45;94815.38;5044989;28;20228;-88
2022/03/13 05:45:19;;;;;;;38.88;12.35;;;;;;;-4.59;54.16;94825.00;5045248;28;20024;-88
2022/03/13 05:47:50;;;;;;;28.80;12.30;;;;;;;-4.52;53.81;94818.81;5045108;28;20025;-88
2022/03/13 05:50:17;;;;;;;32.88;15.10;;;;;;;-4.54;53.54;94812.19;5027112;28;20067;-88
2022/03/13 05:52:45;;;;;;;30.65;13.98;;;;;;;-4.48;53.69;94814.84;5044464;28;20029;-87
2022/03/13 05:55:11;;;;;;;35.70;15.50;;;;;;;-4.51;54.06;94819.63;5044867;28;20049;-88
2022/03/13 05:57:37;;;;;;;35.47;14.00;;;;;;;-4.38;53.04;94822.25;5044693;28;20032;-88
2022/03/13 06:00:08;;;;;;;29.70;13.95;;;;;;;-4.28;52.84;94822.66;5044463;28;20017;-88
2022/03/13 06:02:38;;;;;;;35.15;14.57;;;;;;;-4.20;52.98;94826.09;5044664;28;20098;-88
2022/03/13 06:05:05;;;;;;;35.70;13.05;;;;;;;-4.15;52.79;94834.09;5026788;28;20029;-88
2022/03/13 06:07:30;;;;;;;29.92;13.73;;;;;;;-4.05;52.12;94831.91;5044146;28;20029;-87
2022/03/13 06:10:02;;;;;;;36.25;15.30;;;;;;;-3.99;52.34;94833.72;5044240;28;20013;-88
2022/03/13 06:12:27;;;;;;;37.72;15.73;;;;;;;-3.88;53.25;94833.16;5044294;28;20024;-87
2022/03/13 06:14:53;;;;;;;36.70;14.93;;;;;;;-3.71;53.27;94836.16;5044013;28;20089;-87
2022/03/13 06:17:18;;;;;;;35.97;15.75;;;;;;;-3.56;53.14;94835.97;5044135;28;20319;-84
2022/03/13 06:19:44;;;;;;;41.35;17.75;;;;;;;-3.37;52.35;94838.78;5044143;28;20181;-87
2022/03/13 06:22:11;;;;;;;37.95;15.55;;;;;;;-3.23;52.00;94835.16;5043983;28;20037;-86
2022/03/13 06:24:37;;;;;;;44.38;15.38;;;;;;;-3.09;51.36;94823.69;5044182;28;20097;-89
2022/03/13 06:27:03;;;;;;;39.65;15.02;;;;;;;-2.96;50.80;94828.06;5027461;28;20025;-92
2022/03/13 06:29:31;;;;;;;41.00;16.17;;;;;;;-2.89;50.25;94828.03;5045437;28;20030;-91
2022/03/13 06:31:57;;;;;;;32.90;15.35;;;;;;;-2.80;49.67;94833.84;5044977;28;20021;-89
2022/03/13 06:34:26;;;;;;;39.97;16.27;;;;;;;-2.80;49.30;94828.63;5044262;28;20037;-77
2022/03/13 06:36:52;;;;;;;37.08;16.67;;;;;;;-2.83;49.51;94840.25;5043844;28;20343;-77
2022/03/13 06:39:18;;;;;;;37.08;16.80;;;;;;;-2.85;49.87;94834.44;5043882;28;20018;-76
2022/03/13 06:41:43;;;;;;;37.25;16.08;;;;;;;-2.86;49.80;94841.47;5043836;28;20017;-75
2022/03/13 06:44:09;;;;;;;36.60;15.07;;;;;;;-2.84;49.62;94841.28;5043698;28;20028;-75
2022/03/13 06:46:35;;;;;;;33.58;15.75;;;;;;;-2.87;50.06;94849.50;5043372;28;20044;-76
2022/03/13 06:49:05;;;;;;;39.30;17.33;;;;;;;-2.90;49.73;94855.13;5043594;28;20036;-77
2022/03/13 06:51:32;;;;;;;35.33;16.70;;;;;;;-3.03;50.12;94851.56;5043896;28;20043;-76
2022/03/13 06:53:58;;;;;;;35.97;15.93;;;;;;;-3.13;50.77;94856.38;5043471;28;20017;-76
2022/03/13 06:56:24;;;;;;;36.63;15.30;;;;;;;-3.12;50.17;94847.53;5043263;28;20029;-75
2022/03/13 06:58:50;;;;;;;39.72;16.13;;;;;;;-3.18;49.55;94832.72;5043286;28;20027;-75
2022/03/13 07:01:15;;;;;;;34.92;15.30;;;;;;;-3.13;49.95;94839.94;5043416;28;20025;-77
2022/03/13 07:03:42;;;;;;;33.75;14.82;;;;;;;-3.08;50.24;94832.31;5043198;28;20319;-89
2022/03/13 07:06:10;;;;;;;32.90;13.60;;;;;;;-3.02;48.06;94821.84;5043226;28;20025;-85
2022/03/13 07:08:36;;;;;;;34.50;14.20;;;;;;;-3.09;48.34;94822.88;5043034;28;20041;-85
2022/03/13 07:11:02;;;;;;;33.78;14.05;;;;;;;-3.12;48.53;94821.47;5043064;28;20021;-85
2022/03/13 07:13:32;;;;;;;32.35;14.05;;;;;;;-3.12;48.14;94813.66;5043031;28;20021;-83
2022/03/13 07:16:06;;;;;;;32.00;13.35;;;;;;;-3.18;48.40;94814.47;5043180;28;20029;-86
2022/03/13 07:18:32;;;;;;;31.00;14.55;;;;;;;-3.24;48.56;94808.28;5042716;28;20021;-82
2022/03/13 07:20:58;;;;;;;36.60;13.27;;;;;;;-3.23;48.66;94811.69;5043837;28;20024;-83
2022/03/13 07:23:24;;;;;;;32.65;13.07;;;;;;;-3.18;48.19;94809.25;5042779;28;20021;-81
2022/03/13 07:25:50;;;;;;;40.25;14.05;;;;;;;-3.18;48.00;94814.47;5043171;28;20021;-93
2022/03/13 07:28:16;;;;;;;39.58;14.32;;;;;;;-3.20;48.73;94821.69;5043604;28;20037;-89
2022/03/13 07:30:42;;;;;;;36.83;14.23;;;;;;;-3.17;47.92;94823.91;5025984;28;20045;-90
2022/03/13 07:33:08;;;;;;;35.58;15.27;;;;;;;-3.17;48.54;94826.50;5042899;28;20056;-86
2022/03/13 07:35:33;;;;;;;35.85;14.52;;;;;;;-3.06;48.45;94831.09;5042658;28;20215;-84
2022/03/13 07:37:59;;;;;;;36.58;14.43;;;;;;;-3.04;48.63;94834.28;5042697;28;20063;-86
2022/03/13 07:40:25;;;;;;;34.35;15.13;;;;;;;-2.95;48.55;94836.69;5042423;28;20346;-86
2022/03/13 07:42:50;;;;;;;40.38;14.95;;;;;;;-2.86;48.02;94840.69;5042718;28;20021;-86
2022/03/13 07:45:16;;;;;;;38.40;15.18;;;;;;;-2.73;47.79;94839.81;5042387;28;20373;-85
2022/03/13 07:47:42;;;;;;;32.58;14.70;;;;;;;-2.65;47.52;94829.94;5042277;28;20017;-84
2022/03/13 07:50:08;;;;;;;34.15;15.25;;;;;;;-2.53;47.70;94840.56;5024772;28;20063;-84
2022/03/13 07:52:33;;;;;;;33.38;14.93;;;;;;;-2.42;47.33;94833.91;5042439;28;20248;-84
2022/03/13 07:54:59;;;;;;;35.50;15.38;;;;;;;-2.23;47.67;94835.59;5042366;28;20018;-83
2022/03/13 07:57:24;;;;;;;31.17;15.25;;;;;;;-2.02;47.67;94831.06;5043424;28;20021;-83
2022/03/13 07:59:50;;;;;;;32.17;14.32;;;;;;;-1.93;47.12;94823.78;5046625;28;20017;-82
2022/03/13 08:02:15;;;;;;;35.58;14.85;;;;;;;-1.75;47.07;94815.19;5046434;28;20353;-83
2022/03/13 08:04:42;;;;;;;37.47;14.05;;;;;;;-1.63;45.83;94819.53;5046336;28;20234;-83
2022/03/13 08:07:07;;;;;;;37.28;15.35;;;;;;;-1.54;44.77;94812.22;5045950;28;20028;-83
2022/03/13 08:09:34;;;;;;;34.17;14.48;;;;;;;-1.54;44.13;94814.84;5028579;28;20104;-83
2022/03/13 08:12:00;;;;;;;36.67;14.13;;;;;;;-1.51;44.35;94805.75;5046219;28;20021;-83
2022/03/13 08:14:26;;;;;;;40.85;15.05;;;;;;;-1.43;45.38;94808.09;5046029;28;20042;-84
2022/03/13 08:17:28;;;;;;;;;;;;;;;;;;;;;
2022/03/13 08:20:05;;;;;;;28.98;13.20;;;;;;;-1.09;45.38;94793.69;5044117;28;20223;-85
2022/03/13 08:22:39;;;;;;;30.83;14.27;;;;;;;-0.89;45.57;94793.50;5046030;28;20072;-83
2022/03/13 08:25:09;;;;;;;35.35;14.88;;;;;;;-0.66;44.25;94787.56;5026821;28;20307;-82
2022/03/13 08:27:34;;;;;;;33.00;14.93;;;;;;;-0.49;44.22;94786.97;5045938;28;20067;-83
2022/03/13 08:30:07;;;;;;;30.20;14.98;;;;;;;-0.34;44.31;94792.63;5045733;28;20097;-82
2022/03/13 08:32:34;;;;;;;27.75;13.75;;;;;;;-0.19;42.43;94802.69;5045503;28;20308;-82
2022/03/13 08:34:59;;;;;;;28.13;14.07;;;;;;;-0.20;41.58;94801.13;5028207;28;20028;-82
2022/03/13 08:37:25;;;;;;;31.52;13.57;;;;;;;-0.25;41.18;94803.59;5045722;28;20030;-83
2022/03/13 08:39:50;;;;;;;39.80;17.35;;;;;;;-0.36;41.08;94805.16;5045036;28;20083;-82
2022/03/13 08:42:16;;;;;;;32.90;14.93;;;;;;;-0.30;41.37;94806.09;5045579;28;20017;-82
2022/03/13 08:44:41;;;;;;;37.00;14.32;;;;;;;-0.44;41.03;94806.25;5045622;28;20037;-82
2022/03/13 08:47:06;;;;;;;38.70;15.27;;;;;;;-0.53;41.53;94806.75;5045269;28;20032;-83
2022/03/13 08:49:33;;;;;;;50.85;14.75;;;;;;;-0.51;41.90;94805.56;5028012;28;20240;-83
2022/03/13 08:51:59;;;;;;;31.35;13.82;;;;;;;-0.46;41.74;94804.88;5045659;28;20029;-83
2022/03/13 08:54:24;;;;;;;29.90;15.02;;;;;;;-0.49;41.76;94787.78;5045575;28;20061;-82
2022/03/13 08:56:50;;;;;;;32.72;14.20;;;;;;;-0.47;41.62;94782.31;5045534;28;20070;-82
2022/03/13 08:59:17;;;;;;;30.48;15.07;;;;;;;-0.32;41.37;94792.41;5045224;28;20319;-82
2022/03/13 09:01:43;;;;;;;34.72;16.58;;;;;;;-0.36;41.80;94786.81;5027773;28;20059;-82
2022/03/13 09:04:08;;;;;;;37.60;15.60;;;;;;;-0.35;42.02;94783.16;5045144;28;20025;-82
2022/03/13 09:06:34;;;;;;;37.47;15.60;;;;;;;-0.34;41.39;94779.53;5045219;28;20032;-82
2022/03/13 09:08:59;;;;;;;36.22;17.08;;;;;;;-0.23;42.42;94781.38;5044963;28;20080;-82
2022/03/13 09:11:25;;;;;;;33.00;15.98;;;;;;;-0.10;41.83;94774.34;5045287;28;20031;-82
2022/03/13 09:13:50;;;;;;;42.60;15.43;;;;;;;0.11;41.30;94767.81;5045051;28;20044;-80
2022/03/13 09:16:16;;;;;;;34.72;15.57;;;;;;;0.16;40.39;94774.00;5044863;28;20354;-76
2022/03/13 09:18:41;;;;;;;37.17;16.42;;;;;;;0.26;40.09;94772.63;5044705;28;20246;-75
2022/03/13 09:21:07;;;;;;;32.22;16.25;;;;;;;0.34;40.22;94769.66;5044918;28;20017;-74
2022/03/13 09:23:33;;;;;;;32.10;16.20;;;;;;;0.44;40.53;94769.13;5044917;28;20032;-74
2022/03/13 09:25:59;;;;;;;40.92;17.20;;;;;;;0.64;39.71;94768.78;5044769;28;20036;-74
2022/03/13 09:28:24;;;;;;;32.90;15.40;;;;;;;0.72;40.23;94761.34;5043903;28;20249;-73
2022/03/13 09:30:50;;;;;;;37.53;15.93;;;;;;;0.85;38.72;94762.16;5044456;28;20052;-73
2022/03/13 09:33:16;;;;;;;30.70;14.80;;;;;;;1.00;38.83;94760.66;5044513;28;20049;-73
2022/03/13 09:35:42;;;;;;;37.08;16.83;;;;;;;1.11;39.45;94759.03;5044401;28;20025;-74
2022/03/13 09:38:08;;;;;;;34.50;15.38;;;;;;;1.18;38.11;94759.72;5044372;28;20017;-73
2022/03/13 09:40:34;;;;;;;38.78;16.48;;;;;;;1.25;39.05;94758.78;5044378;28;20092;-74
2022/03/13 09:43:05;;;;;;;42.25;16.48;;;;;;;1.37;37.86;94749.81;5042781;28;20014;-74
2022/03/13 09:45:31;;;;;;;38.08;16.05;;;;;;;1.63;38.43;94750.31;5041127;28;20060;-84
2022/03/13 09:47:57;;;;;;;38.17;16.92;;;;;;;1.99;36.79;94753.56;5041663;28;20021;-74
2022/03/13 09:50:22;;;;;;;40.75;16.38;;;;;;;2.04;36.78;94745.78;5042611;28;20029;-76
2022/03/13 09:52:48;;;;;;;33.70;15.20;;;;;;;2.19;35.65;94746.00;5043463;28;20212;-80
2022/03/13 09:55:15;;;;;;;34.28;15.75;;;;;;;2.32;36.67;94741.47;5044561;28;20033;-79
2022/03/13 09:57:43;;;;;;;35.30;16.63;;;;;;;2.48;36.04;94745.94;5026627;28;20075;-78
2022/03/13 10:00:14;;;;;;;41.97;17.30;;;;;;;2.63;35.71;94736.69;5044039;28;20048;-78
2022/03/13 10:02:40;;;;;;;34.42;15.35;;;;;;;2.74;36.07;94746.31;5043399;28;20208;-78
2022/03/13 10:05:12;;;;;;;32.45;15.75;;;;;;;2.92;35.54;94746.03;5044387;28;20021;-79
2022/03/13 10:07:58;;;;;;;35.45;15.50;;;;;;;3.11;34.24;94736.00;5044273;28;20088;-83
2022/03/13 10:10:48;;;;;;;35.90;15.60;;;;;;;3.12;33.76;94732.34;5043873;28;20048;-79
2022/03/13 10:13:16;;;;;;;40.40;17.15;;;;;;;3.15;34.03;94723.94;5035906;28;20104;-79
2022/03/13 10:15:47;;;;;;;36.55;16.58;;;;;;;3.31;34.24;94732.81;5044220;28;20096;-78
2022/03/13 10:18:15;;;;;;;40.10;17.02;;;;;;;3.58;34.54;94718.88;5043981;28;20243;-78
2022/03/13 10:20:42;;;;;;;35.45;17.27;;;;;;;3.74;32.90;94719.84;5043151;28;20037;-79
2022/03/13 10:23:11;;;;;;;38.60;17.30;;;;;;;3.71;32.54;94710.59;5043607;28;20385;-78
2022/03/13 10:25:41;;;;;;;38.65;15.85;;;;;;;3.87;31.92;94713.38;5043656;28;20311;-79
2022/03/13 10:28:28;;;;;;;33.58;16.60;;;;;;;3.96;31.68;94712.66;5043559;28;20033;-78
2022/03/13 10:31:00;;;;;;;36.83;16.02;;;;;;;4.09;32.00;94719.41;5043354;28;20097;-77
2022/03/13 10:33:27;;;;;;;37.08;17.02;;;;;;;4.19;32.09;94705.47;5043310;28;20044;-78
2022/03/13 10:36:16;;;;;;;33.25;17.23;;;;;;;4.21;31.73;94706.00;5043254;28;20021;-78
2022/03/13 10:38:43;;;;;;;36.10;17.23;;;;;;;4.31;32.06;94703.44;5043669;28;20013;-79
2022/03/13 10:41:09;;;;;;;37.55;19.75;;;;;;;4.53;32.49;94703.34;5043409;28;20037;-79
2022/03/13 10:43:40;;;;;;;43.53;17.42;;;;;;;4.82;32.27;94697.72;5043505;28;20029;-77
2022/03/13 10:46:06;;;;;;;41.92;16.15;;;;;;;5.05;29.92;94701.00;5043455;28;20066;-77
2022/03/13 10:48:36;;;;;;;49.78;15.70;;;;;;;4.96;29.64;94704.13;5043517;28;20067;-77
2022/03/13 10:51:06;;;;;;;33.65;14.70;;;;;;;4.95;30.17;94697.25;5043387;28;20224;-80
2022/03/13 10:53:32;;;;;;;33.25;16.02;;;;;;;4.99;29.70;94698.34;5043378;28;20028;-80
2022/03/13 10:56:14;;;;;;;33.38;14.48;;;;;;;4.93;30.49;94698.56;5025532;28;20048;-81
2022/03/13 10:58:48;;;;;;;36.80;15.52;;;;;;;5.02;31.55;94697.03;5043246;28;20025;-77
2022/03/13 11:01:18;;;;;;;31.08;15.98;;;;;;;5.21;30.75;94692.88;5043169;28;20070;-90
2022/03/13 11:03:52;;;;;;;34.20;13.90;;;;;;;5.40;29.60;94690.56;5044026;28;20076;-91
2022/03/13 11:06:18;;;;;;;30.38;13.57;;;;;;;5.52;28.83;94684.28;5043950;28;20395;-90
2022/03/13 11:08:44;;;;;;;31.15;13.65;;;;;;;5.45;28.03;94679.19;5042725;28;20108;-91
2022/03/13 11:11:10;;;;;;;29.15;13.63;;;;;;;5.35;28.21;94684.47;5043878;28;20018;-90
2022/03/13 11:13:41;;;;;;;32.72;14.52;;;;;;;5.25;28.86;94681.78;5026477;28;20104;-86
2022/03/13 11:16:09;;;;;;;31.92;13.68;;;;;;;5.23;29.04;94674.91;5043594;28;20033;-89
2022/03/13 11:18:37;;;;;;;30.75;12.50;;;;;;;5.18;29.59;94680.19;5043679;28;20358;-90
2022/03/13 11:21:08;;;;;;;27.80;11.85;;;;;;;5.18;29.16;94682.03;5028004;28;20102;-95
2022/03/13 11:23:35;;;;;;;33.60;11.57;;;;;;;5.22;28.58;94670.69;5044280;28;20045;-92